Terminal Aerodrome Forecast
Issued by NWS Upton, NY

Home | Current Version | Previous Version | Text Only | Print | Product List | Glossary On
Versions: 1 2 3 4 5 6 7 8 9 10 11 12 13 14 15 16 17 18 19 20 21 22 23 24 25 26 27
547
FTUS41 KOKX 240548
TAFEWR
TAF
KEWR 240548Z 2406/2512 13002KT P6SM BKN250
     FM241500 08004KT P6SM BKN150
     FM241800 09007KT P6SM BKN100
     FM242200 08009KT P6SM SCT050 BKN080
     FM250300 06008KT P6SM -RA SCT015 OVC060
     FM250600 05011KT 5SM -RA BR BKN015 OVC050=

USA.gov is the U.S. government's official web portal to all federal, state and local government web resources and services.